Haicheng, China
Current Conditions -  °F | °C
As of 3:00 AM on Wednesday 28 Jan 2015 (Local Time) from ZYTX Reporting Station
Clear Clear  
Wind Chill: -26°   Ceiling: Unl
Heat Index: -20°   Visibility: 4mi
Dew Point: -25°   Wind: 4mph
Humidity: 65%   Direction: 60°ENE
Pressure: 30.59"   Gusts: NA
Location:  40.86°N, 122.74°E
Report Text: ZYTX 271900Z 06002MPS 7000 NSC M20/M25 Q1036 NOSIG
Loading
Personal Weather Stations






























Interactive Weather Map New forecast layout! Learn more

10-Day Weather Forecast

Advertisements
Track Severe Weather on mobile